sensor_id;sensor_type;location;lat;lon;timestamp;temperature;humidity
61841;DHT22;47773;53.174;6.614;2023-06-04T00:01:08;12.40;99.90
61841;DHT22;47773;53.174;6.614;2023-06-04T00:03:34;12.30;99.90
61841;DHT22;47773;53.174;6.614;2023-06-04T00:06:00;12.30;99.90
61841;DHT22;47773;53.174;6.614;2023-06-04T00:08:26;12.30;99.90
61841;DHT22;47773;53.174;6.614;2023-06-04T00:10:52;12.30;99.90
61841;DHT22;47773;53.174;6.614;2023-06-04T00:13:18;12.30;99.90
61841;DHT22;47773;53.174;6.614;2023-06-04T00:15:43;12.30;99.90
61841;DHT22;47773;53.174;6.614;2023-06-04T00:18:09;12.30;99.90
61841;DHT22;47773;53.174;6.614;2023-06-04T00:20:36;12.30;99.90
61841;DHT22;47773;53.174;6.614;2023-06-04T00:23:02;12.30;99.90
61841;DHT22;47773;53.174;6.614;2023-06-04T00:25:28;12.20;99.90
61841;DHT22;47773;53.174;6.614;2023-06-04T00:27:53;12.20;99.90
61841;DHT22;47773;53.174;6.614;2023-06-04T00:30:19;12.20;99.90
61841;DHT22;47773;53.174;6.614;2023-06-04T00:32:45;12.20;99.90
61841;DHT22;47773;53.174;6.614;2023-06-04T00:35:12;12.20;99.90
61841;DHT22;47773;53.174;6.614;2023-06-04T00:37:38;12.10;99.90
61841;DHT22;47773;53.174;6.614;2023-06-04T00:40:04;12.10;99.90
61841;DHT22;47773;53.174;6.614;2023-06-04T00:42:31;12.10;99.90
61841;DHT22;47773;53.174;6.614;2023-06-04T00:44:57;12.10;99.90
61841;DHT22;47773;53.174;6.614;2023-06-04T00:47:23;12.00;99.90
61841;DHT22;47773;53.174;6.614;2023-06-04T00:49:49;12.00;99.90
61841;DHT22;47773;53.174;6.614;2023-06-04T00:52:15;12.00;99.90
61841;DHT22;47773;53.174;6.614;2023-06-04T00:54:42;11.90;99.90
61841;DHT22;47773;53.174;6.614;2023-06-04T00:57:07;12.00;99.90
61841;DHT22;47773;53.174;6.614;2023-06-04T00:59:36;12.00;99.90
61841;DHT22;47773;53.174;6.614;2023-06-04T01:07:07;11.90;99.90
61841;DHT22;47773;53.174;6.614;2023-06-04T01:09:35;11.90;99.90
61841;DHT22;47773;53.174;6.614;2023-06-04T01:12:05;11.90;99.90
61841;DHT22;47773;53.174;6.614;2023-06-04T01:14:30;11.90;99.90
61841;DHT22;47773;53.174;6.614;2023-06-04T01:25:37;11.70;99.90
61841;DHT22;47773;53.174;6.614;2023-06-04T01:28:06;11.70;99.90
61841;DHT22;47773;53.174;6.614;2023-06-04T01:30:34;11.70;99.90
61841;DHT22;47773;53.174;6.614;2023-06-04T01:33:02;11.70;99.90
61841;DHT22;47773;53.174;6.614;2023-06-04T01:35:29;11.70;99.90
61841;DHT22;47773;53.174;6.614;2023-06-04T01:37:57;11.80;99.90
61841;DHT22;47773;53.174;6.614;2023-06-04T01:40:23;11.70;99.90
61841;DHT22;47773;53.174;6.614;2023-06-04T01:42:50;11.70;99.90
61841;DHT22;47773;53.174;6.614;2023-06-04T01:45:16;11.70;99.90
61841;DHT22;47773;53.174;6.614;2023-06-04T01:47:41;11.70;99.90
61841;DHT22;47773;53.174;6.614;2023-06-04T01:50:08;11.70;99.90
61841;DHT22;47773;53.174;6.614;2023-06-04T01:52:38;11.70;99.90
61841;DHT22;47773;53.174;6.614;2023-06-04T01:55:08;11.70;99.90
61841;DHT22;47773;53.174;6.614;2023-06-04T01:57:35;11.70;99.90
61841;DHT22;47773;53.174;6.614;2023-06-04T02:00:02;11.70;99.90
61841;DHT22;47773;53.174;6.614;2023-06-04T02:02:29;11.70;99.90
61841;DHT22;47773;53.174;6.614;2023-06-04T02:04:55;11.70;99.90
61841;DHT22;47773;53.174;6.614;2023-06-04T02:07:20;11.70;99.90
61841;DHT22;47773;53.174;6.614;2023-06-04T02:09:47;11.70;99.90
61841;DHT22;47773;53.174;6.614;2023-06-04T02:12:13;11.70;99.90
61841;DHT22;47773;53.174;6.614;2023-06-04T02:14:39;11.60;99.90
61841;DHT22;47773;53.174;6.614;2023-06-04T02:17:05;11.60;99.90
61841;DHT22;47773;53.174;6.614;2023-06-04T02:19:40;11.60;99.90
61841;DHT22;47773;53.174;6.614;2023-06-04T02:22:11;11.60;99.90
61841;DHT22;47773;53.174;6.614;2023-06-04T02:24:38;11.50;99.90
61841;DHT22;47773;53.174;6.614;2023-06-04T02:27:05;11.40;99.90
61841;DHT22;47773;53.174;6.614;2023-06-04T02:29:31;11.40;99.90
61841;DHT22;47773;53.174;6.614;2023-06-04T02:31:57;11.40;99.90
61841;DHT22;47773;53.174;6.614;2023-06-04T02:34:23;11.40;99.90
61841;DHT22;47773;53.174;6.614;2023-06-04T02:36:49;11.40;99.90
61841;DHT22;47773;53.174;6.614;2023-06-04T02:39:17;11.30;99.90
61841;DHT22;47773;53.174;6.614;2023-06-04T02:41:43;11.30;99.90
61841;DHT22;47773;53.174;6.614;2023-06-04T02:44:09;11.30;99.90
61841;DHT22;47773;53.174;6.614;2023-06-04T02:46:34;11.30;99.90
61841;DHT22;47773;53.174;6.614;2023-06-04T02:49:00;11.30;99.90
61841;DHT22;47773;53.174;6.614;2023-06-04T02:51:26;11.20;99.90
61841;DHT22;47773;53.174;6.614;2023-06-04T02:53:54;11.20;99.90
61841;DHT22;47773;53.174;6.614;2023-06-04T02:56:20;11.20;99.90
61841;DHT22;47773;53.174;6.614;2023-06-04T02:58:53;11.20;99.90
61841;DHT22;47773;53.174;6.614;2023-06-04T03:01:21;11.20;99.90
61841;DHT22;47773;53.174;6.614;2023-06-04T03:03:47;11.20;99.90
61841;DHT22;47773;53.174;6.614;2023-06-04T03:06:13;11.20;99.90
61841;DHT22;47773;53.174;6.614;2023-06-04T03:08:40;11.10;99.90
61841;DHT22;47773;53.174;6.614;2023-06-04T03:11:06;11.20;99.90
61841;DHT22;47773;53.174;6.614;2023-06-04T03:13:32;11.20;99.90
61841;DHT22;47773;53.174;6.614;2023-06-04T03:15:58;11.10;99.90
61841;DHT22;47773;53.174;6.614;2023-06-04T03:18:25;11.10;99.90
61841;DHT22;47773;53.174;6.614;2023-06-04T03:20:52;11.20;99.90
61841;DHT22;47773;53.174;6.614;2023-06-04T03:23:18;11.20;99.90
61841;DHT22;47773;53.174;6.614;2023-06-04T03:25:44;11.20;99.90
61841;DHT22;47773;53.174;6.614;2023-06-04T03:28:10;11.20;99.90
61841;DHT22;47773;53.174;6.614;2023-06-04T03:30:36;11.20;99.90
61841;DHT22;47773;53.174;6.614;2023-06-04T03:33:01;11.20;99.90
61841;DHT22;47773;53.174;6.614;2023-06-04T03:35:28;11.20;99.90
61841;DHT22;47773;53.174;6.614;2023-06-04T03:37:54;11.20;99.90
61841;DHT22;47773;53.174;6.614;2023-06-04T03:40:19;11.20;99.90
61841;DHT22;47773;53.174;6.614;2023-06-04T03:42:45;11.20;99.90
61841;DHT22;47773;53.174;6.614;2023-06-04T03:45:11;11.20;99.90
61841;DHT22;47773;53.174;6.614;2023-06-04T03:47:38;11.20;99.90
61841;DHT22;47773;53.174;6.614;2023-06-04T03:50:04;11.20;99.90
61841;DHT22;47773;53.174;6.614;2023-06-04T03:52:30;11.20;99.90
61841;DHT22;47773;53.174;6.614;2023-06-04T03:54:56;11.20;99.90
61841;DHT22;47773;53.174;6.614;2023-06-04T03:57:22;11.20;99.90
61841;DHT22;47773;53.174;6.614;2023-06-04T03:59:48;11.20;99.90
61841;DHT22;47773;53.174;6.614;2023-06-04T04:02:14;11.20;99.90
61841;DHT22;47773;53.174;6.614;2023-06-04T04:04:40;11.20;99.90
61841;DHT22;47773;53.174;6.614;2023-06-04T04:07:06;11.20;99.90
61841;DHT22;47773;53.174;6.614;2023-06-04T04:09:31;11.10;99.90
61841;DHT22;47773;53.174;6.614;2023-06-04T04:11:57;11.20;99.90
61841;DHT22;47773;53.174;6.614;2023-06-04T04:14:23;11.20;99.90
61841;DHT22;47773;53.174;6.614;2023-06-04T04:16:48;11.20;99.90
61841;DHT22;47773;53.174;6.614;2023-06-04T04:19:14;11.20;99.90
61841;DHT22;47773;53.174;6.614;2023-06-04T04:21:40;11.40;99.90
61841;DHT22;47773;53.174;6.614;2023-06-04T04:24:05;11.50;99.90
61841;DHT22;47773;53.174;6.614;2023-06-04T04:26:32;11.70;99.90
61841;DHT22;47773;53.174;6.614;2023-06-04T04:28:58;11.90;99.90
61841;DHT22;47773;53.174;6.614;2023-06-04T04:31:27;12.10;99.90
61841;DHT22;47773;53.174;6.614;2023-06-04T04:33:55;12.20;99.90
61841;DHT22;47773;53.174;6.614;2023-06-04T04:36:21;12.40;99.90
61841;DHT22;47773;53.174;6.614;2023-06-04T04:38:46;12.40;99.90
61841;DHT22;47773;53.174;6.614;2023-06-04T04:41:20;12.50;99.90
61841;DHT22;47773;53.174;6.614;2023-06-04T04:43:46;12.50;99.90
61841;DHT22;47773;53.174;6.614;2023-06-04T04:46:12;12.40;99.90
61841;DHT22;47773;53.174;6.614;2023-06-04T04:48:37;12.40;99.90
61841;DHT22;47773;53.174;6.614;2023-06-04T04:51:04;12.40;99.90
61841;DHT22;47773;53.174;6.614;2023-06-04T04:53:30;12.40;99.90
61841;DHT22;47773;53.174;6.614;2023-06-04T04:55:57;12.30;99.90
61841;DHT22;47773;53.174;6.614;2023-06-04T04:58:23;12.20;99.90
61841;DHT22;47773;53.174;6.614;2023-06-04T05:00:49;12.20;99.90
61841;DHT22;47773;53.174;6.614;2023-06-04T05:03:15;12.20;99.90
61841;DHT22;47773;53.174;6.614;2023-06-04T05:05:40;12.20;99.90
61841;DHT22;47773;53.174;6.614;2023-06-04T05:08:06;12.20;99.90
61841;DHT22;47773;53.174;6.614;2023-06-04T05:10:33;12.20;99.90
61841;DHT22;47773;53.174;6.614;2023-06-04T05:13:01;12.20;99.90
61841;DHT22;47773;53.174;6.614;2023-06-04T05:15:27;12.30;99.90
61841;DHT22;47773;53.174;6.614;2023-06-04T05:17:53;12.30;99.90
61841;DHT22;47773;53.174;6.614;2023-06-04T05:20:22;12.30;99.90
61841;DHT22;47773;53.174;6.614;2023-06-04T05:22:48;12.30;99.90
61841;DHT22;47773;53.174;6.614;2023-06-04T05:25:14;12.40;99.90
61841;DHT22;47773;53.174;6.614;2023-06-04T05:27:40;12.40;99.90
61841;DHT22;47773;53.174;6.614;2023-06-04T05:30:08;12.50;99.90
61841;DHT22;47773;53.174;6.614;2023-06-04T05:32:33;12.50;99.90
61841;DHT22;47773;53.174;6.614;2023-06-04T05:35:02;12.60;99.90
61841;DHT22;47773;53.174;6.614;2023-06-04T05:37:30;12.70;99.90
61841;DHT22;47773;53.174;6.614;2023-06-04T05:39:56;12.70;99.90
61841;DHT22;47773;53.174;6.614;2023-06-04T05:42:22;12.70;99.90
61841;DHT22;47773;53.174;6.614;2023-06-04T05:44:49;12.80;99.90
61841;DHT22;47773;53.174;6.614;2023-06-04T05:47:16;12.90;99.90
61841;DHT22;47773;53.174;6.614;2023-06-04T05:49:44;12.90;99.90
61841;DHT22;47773;53.174;6.614;2023-06-04T05:52:10;12.90;99.90
61841;DHT22;47773;53.174;6.614;2023-06-04T05:54:36;13.00;99.90
61841;DHT22;47773;53.174;6.614;2023-06-04T05:57:05;13.10;99.90
61841;DHT22;47773;53.174;6.614;2023-06-04T05:59:31;13.10;99.90
61841;DHT22;47773;53.174;6.614;2023-06-04T06:01:57;13.10;99.90
61841;DHT22;47773;53.174;6.614;2023-06-04T06:04:23;13.10;99.90
61841;DHT22;47773;53.174;6.614;2023-06-04T06:06:49;13.20;99.90
61841;DHT22;47773;53.174;6.614;2023-06-04T06:09:15;13.30;99.90
61841;DHT22;47773;53.174;6.614;2023-06-04T06:11:41;13.30;99.90
61841;DHT22;47773;53.174;6.614;2023-06-04T06:14:07;13.30;99.90
61841;DHT22;47773;53.174;6.614;2023-06-04T06:16:33;13.30;99.90
61841;DHT22;47773;53.174;6.614;2023-06-04T06:19:00;13.40;99.90
61841;DHT22;47773;53.174;6.614;2023-06-04T06:21:25;13.50;99.90
61841;DHT22;47773;53.174;6.614;2023-06-04T06:23:51;13.60;99.90
61841;DHT22;47773;53.174;6.614;2023-06-04T06:26:17;13.60;99.90
61841;DHT22;47773;53.174;6.614;2023-06-04T06:28:43;13.70;99.90
61841;DHT22;47773;53.174;6.614;2023-06-04T06:31:09;13.70;99.90
61841;DHT22;47773;53.174;6.614;2023-06-04T06:33:35;13.80;99.90
61841;DHT22;47773;53.174;6.614;2023-06-04T06:36:07;13.80;99.90
61841;DHT22;47773;53.174;6.614;2023-06-04T06:38:33;13.90;99.90
61841;DHT22;47773;53.174;6.614;2023-06-04T06:40:59;14.00;99.90
61841;DHT22;47773;53.174;6.614;2023-06-04T06:43:24;14.10;99.90
61841;DHT22;47773;53.174;6.614;2023-06-04T06:45:51;14.20;99.90
61841;DHT22;47773;53.174;6.614;2023-06-04T06:48:17;14.30;99.90
61841;DHT22;47773;53.174;6.614;2023-06-04T06:50:42;14.40;99.90
61841;DHT22;47773;53.174;6.614;2023-06-04T06:53:08;14.50;99.90
61841;DHT22;47773;53.174;6.614;2023-06-04T06:55:34;14.50;99.90
61841;DHT22;47773;53.174;6.614;2023-06-04T06:57:59;14.60;99.90
61841;DHT22;47773;53.174;6.614;2023-06-04T07:00:26;14.70;99.90
61841;DHT22;47773;53.174;6.614;2023-06-04T07:02:53;14.80;99.90
61841;DHT22;47773;53.174;6.614;2023-06-04T07:05:19;14.80;99.90
61841;DHT22;47773;53.174;6.614;2023-06-04T07:07:45;14.90;99.90
61841;DHT22;47773;53.174;6.614;2023-06-04T07:10:12;15.10;99.90
61841;DHT22;47773;53.174;6.614;2023-06-04T07:12:39;15.20;99.90
61841;DHT22;47773;53.174;6.614;2023-06-04T07:15:06;15.40;99.90
61841;DHT22;47773;53.174;6.614;2023-06-04T07:17:32;15.50;99.90
61841;DHT22;47773;53.174;6.614;2023-06-04T07:19:58;15.60;99.90
61841;DHT22;47773;53.174;6.614;2023-06-04T07:22:23;15.70;99.90
61841;DHT22;47773;53.174;6.614;2023-06-04T07:24:49;15.70;99.90
61841;DHT22;47773;53.174;6.614;2023-06-04T07:27:16;15.80;99.90
61841;DHT22;47773;53.174;6.614;2023-06-04T07:29:43;15.90;99.90
61841;DHT22;47773;53.174;6.614;2023-06-04T07:32:10;16.10;99.90
61841;DHT22;47773;53.174;6.614;2023-06-04T07:34:36;16.30;99.90
61841;DHT22;47773;53.174;6.614;2023-06-04T07:37:03;16.50;99.90
61841;DHT22;47773;53.174;6.614;2023-06-04T07:39:29;16.60;99.90
61841;DHT22;47773;53.174;6.614;2023-06-04T07:41:54;16.70;99.90
61841;DHT22;47773;53.174;6.614;2023-06-04T07:44:20;16.80;99.90
61841;DHT22;47773;53.174;6.614;2023-06-04T07:46:46;16.90;99.90
61841;DHT22;47773;53.174;6.614;2023-06-04T07:49:11;17.10;99.90
61841;DHT22;47773;53.174;6.614;2023-06-04T07:51:37;17.20;99.90
61841;DHT22;47773;53.174;6.614;2023-06-04T07:54:03;17.30;99.90
61841;DHT22;47773;53.174;6.614;2023-06-04T07:56:29;17.50;99.90
61841;DHT22;47773;53.174;6.614;2023-06-04T07:58:54;17.60;99.90
61841;DHT22;47773;53.174;6.614;2023-06-04T08:01:21;17.80;99.80
61841;DHT22;47773;53.174;6.614;2023-06-04T08:03:47;17.70;99.20
61841;DHT22;47773;53.174;6.614;2023-06-04T08:06:13;18.00;99.10
61841;DHT22;47773;53.174;6.614;2023-06-04T08:08:45;18.10;98.60
61841;DHT22;47773;53.174;6.614;2023-06-04T08:11:16;18.20;97.40
61841;DHT22;47773;53.174;6.614;2023-06-04T08:13:42;18.30;97.00
61841;DHT22;47773;53.174;6.614;2023-06-04T08:16:08;18.50;97.00
61841;DHT22;47773;53.174;6.614;2023-06-04T08:18:39;18.70;97.40
61841;DHT22;47773;53.174;6.614;2023-06-04T08:21:05;19.00;95.30
61841;DHT22;47773;53.174;6.614;2023-06-04T08:23:32;19.10;95.80
61841;DHT22;47773;53.174;6.614;2023-06-04T08:25:57;18.90;95.40
61841;DHT22;47773;53.174;6.614;2023-06-04T08:28:24;19.10;95.00
61841;DHT22;47773;53.174;6.614;2023-06-04T08:30:50;19.10;94.30
61841;DHT22;47773;53.174;6.614;2023-06-04T08:33:15;19.30;93.80
61841;DHT22;47773;53.174;6.614;2023-06-04T08:35:41;19.50;93.50
61841;DHT22;47773;53.174;6.614;2023-06-04T08:38:07;19.40;93.10
61841;DHT22;47773;53.174;6.614;2023-06-04T08:40:33;19.60;93.00
61841;DHT22;47773;53.174;6.614;2023-06-04T08:43:01;19.90;92.70
61841;DHT22;47773;53.174;6.614;2023-06-04T08:45:27;20.00;91.00
61841;DHT22;47773;53.174;6.614;2023-06-04T08:47:53;20.20;88.40
61841;DHT22;47773;53.174;6.614;2023-06-04T08:50:21;20.30;88.70
61841;DHT22;47773;53.174;6.614;2023-06-04T08:52:52;20.50;86.00
61841;DHT22;47773;53.174;6.614;2023-06-04T08:55:18;20.40;84.50
61841;DHT22;47773;53.174;6.614;2023-06-04T08:57:44;20.50;83.60
61841;DHT22;47773;53.174;6.614;2023-06-04T09:00:11;20.60;82.60
61841;DHT22;47773;53.174;6.614;2023-06-04T09:02:38;20.80;81.00
61841;DHT22;47773;53.174;6.614;2023-06-04T09:05:05;20.80;78.20
61841;DHT22;47773;53.174;6.614;2023-06-04T09:07:39;20.80;77.00
61841;DHT22;47773;53.174;6.614;2023-06-04T09:10:09;20.80;78.00
61841;DHT22;47773;53.174;6.614;2023-06-04T09:12:42;20.80;76.70
61841;DHT22;47773;53.174;6.614;2023-06-04T09:15:08;20.90;76.30
61841;DHT22;47773;53.174;6.614;2023-06-04T09:17:34;20.90;75.40
61841;DHT22;47773;53.174;6.614;2023-06-04T09:20:00;21.00;74.90
61841;DHT22;47773;53.174;6.614;2023-06-04T09:22:36;21.00;74.40
61841;DHT22;47773;53.174;6.614;2023-06-04T09:25:06;21.30;72.70
61841;DHT22;47773;53.174;6.614;2023-06-04T09:27:38;21.50;71.40
61841;DHT22;47773;53.174;6.614;2023-06-04T09:30:05;21.40;70.30
61841;DHT22;47773;53.174;6.614;2023-06-04T09:32:31;21.60;73.70
61841;DHT22;47773;53.174;6.614;2023-06-04T09:35:17;21.60;72.20
61841;DHT22;47773;53.174;6.614;2023-06-04T09:37:52;21.70;69.70
61841;DHT22;47773;53.174;6.614;2023-06-04T09:40:19;21.70;70.80
61841;DHT22;47773;53.174;6.614;2023-06-04T09:42:47;21.60;71.00
61841;DHT22;47773;53.174;6.614;2023-06-04T09:45:33;21.70;70.70
61841;DHT22;47773;53.174;6.614;2023-06-04T09:48:00;21.80;68.80
61841;DHT22;47773;53.174;6.614;2023-06-04T09:50:33;21.80;69.70
61841;DHT22;47773;53.174;6.614;2023-06-04T09:53:00;22.00;69.50
61841;DHT22;47773;53.174;6.614;2023-06-04T09:55:27;22.20;69.70
61841;DHT22;47773;53.174;6.614;2023-06-04T09:57:53;22.30;68.60
61841;DHT22;47773;53.174;6.614;2023-06-04T10:00:21;22.30;68.90
61841;DHT22;47773;53.174;6.614;2023-06-04T10:02:49;22.20;68.00
61841;DHT22;47773;53.174;6.614;2023-06-04T10:05:15;22.10;67.80
61841;DHT22;47773;53.174;6.614;2023-06-04T10:07:45;22.10;67.40
61841;DHT22;47773;53.174;6.614;2023-06-04T10:10:15;22.10;66.50
61841;DHT22;47773;53.174;6.614;2023-06-04T10:12:42;22.20;65.70
61841;DHT22;47773;53.174;6.614;2023-06-04T10:15:12;22.20;65.80
61841;DHT22;47773;53.174;6.614;2023-06-04T10:17:38;22.30;64.60
61841;DHT22;47773;53.174;6.614;2023-06-04T10:20:06;22.50;65.30
61841;DHT22;47773;53.174;6.614;2023-06-04T10:22:37;22.40;65.00
61841;DHT22;47773;53.174;6.614;2023-06-04T10:25:03;22.50;65.10
61841;DHT22;47773;53.174;6.614;2023-06-04T10:27:33;22.70;64.50
61841;DHT22;47773;53.174;6.614;2023-06-04T10:30:05;22.80;63.80
61841;DHT22;47773;53.174;6.614;2023-06-04T10:32:31;22.40;62.30
61841;DHT22;47773;53.174;6.614;2023-06-04T10:34:57;22.30;63.70
61841;DHT22;47773;53.174;6.614;2023-06-04T10:37:24;22.30;64.00
61841;DHT22;47773;53.174;6.614;2023-06-04T10:39:52;22.30;64.50
61841;DHT22;47773;53.174;6.614;2023-06-04T10:42:18;22.30;65.10
61841;DHT22;47773;53.174;6.614;2023-06-04T10:44:48;22.40;65.50
61841;DHT22;47773;53.174;6.614;2023-06-04T10:49:50;22.50;64.60
61841;DHT22;47773;53.174;6.614;2023-06-04T10:52:17;22.70;65.90
61841;DHT22;47773;53.174;6.614;2023-06-04T10:54:44;22.80;64.80
61841;DHT22;47773;53.174;6.614;2023-06-04T10:57:15;22.80;64.80
61841;DHT22;47773;53.174;6.614;2023-06-04T10:59:41;22.80;63.90
61841;DHT22;47773;53.174;6.614;2023-06-04T11:02:09;22.90;64.70
61841;DHT22;47773;53.174;6.614;2023-06-04T11:04:35;23.00;64.40
61841;DHT22;47773;53.174;6.614;2023-06-04T11:07:06;22.80;64.20
61841;DHT22;47773;53.174;6.614;2023-06-04T11:09:35;22.80;64.80
61841;DHT22;47773;53.174;6.614;2023-06-04T11:12:04;22.70;64.60
61841;DHT22;47773;53.174;6.614;2023-06-04T11:14:30;22.70;65.10
61841;DHT22;47773;53.174;6.614;2023-06-04T11:16:56;22.80;64.60
61841;DHT22;47773;53.174;6.614;2023-06-04T11:19:21;23.00;64.70
61841;DHT22;47773;53.174;6.614;2023-06-04T11:21:48;23.00;64.90
61841;DHT22;47773;53.174;6.614;2023-06-04T11:24:14;23.00;64.30
61841;DHT22;47773;53.174;6.614;2023-06-04T11:26:39;22.70;64.10
61841;DHT22;47773;53.174;6.614;2023-06-04T11:29:11;22.70;65.00
61841;DHT22;47773;53.174;6.614;2023-06-04T11:31:47;22.60;65.50
61841;DHT22;47773;53.174;6.614;2023-06-04T11:34:29;22.80;64.90
61841;DHT22;47773;53.174;6.614;2023-06-04T11:36:55;22.80;64.40
61841;DHT22;47773;53.174;6.614;2023-06-04T11:39:22;22.60;65.30
61841;DHT22;47773;53.174;6.614;2023-06-04T11:41:50;22.50;65.60
61841;DHT22;47773;53.174;6.614;2023-06-04T11:44:19;22.50;65.70
61841;DHT22;47773;53.174;6.614;2023-06-04T11:46:45;22.50;66.00
61841;DHT22;47773;53.174;6.614;2023-06-04T11:49:18;22.50;66.10
61841;DHT22;47773;53.174;6.614;2023-06-04T11:51:48;22.50;65.00
61841;DHT22;47773;53.174;6.614;2023-06-04T11:54:18;22.50;66.10
61841;DHT22;47773;53.174;6.614;2023-06-04T11:56:44;22.40;66.30
61841;DHT22;47773;53.174;6.614;2023-06-04T11:59:11;22.40;66.50
61841;DHT22;47773;53.174;6.614;2023-06-04T12:01:42;22.40;66.10
61841;DHT22;47773;53.174;6.614;2023-06-04T12:04:16;22.50;65.70
61841;DHT22;47773;53.174;6.614;2023-06-04T12:06:59;22.40;65.70
61841;DHT22;47773;53.174;6.614;2023-06-04T12:09:33;22.30;65.60
61841;DHT22;47773;53.174;6.614;2023-06-04T12:12:07;22.10;66.30
61841;DHT22;47773;53.174;6.614;2023-06-04T12:14:33;22.10;66.20
61841;DHT22;47773;53.174;6.614;2023-06-04T12:17:06;22.30;66.30
61841;DHT22;47773;53.174;6.614;2023-06-04T12:19:32;22.40;66.50
61841;DHT22;47773;53.174;6.614;2023-06-04T12:22:06;22.50;66.60
61841;DHT22;47773;53.174;6.614;2023-06-04T12:24:33;22.40;66.10
61841;DHT22;47773;53.174;6.614;2023-06-04T12:27:09;22.30;66.20
61841;DHT22;47773;53.174;6.614;2023-06-04T12:29:35;22.50;66.50
61841;DHT22;47773;53.174;6.614;2023-06-04T12:32:09;22.60;66.60
61841;DHT22;47773;53.174;6.614;2023-06-04T12:34:41;22.60;66.10
61841;DHT22;47773;53.174;6.614;2023-06-04T12:37:07;22.50;66.30
61841;DHT22;47773;53.174;6.614;2023-06-04T12:39:34;22.40;66.40
61841;DHT22;47773;53.174;6.614;2023-06-04T12:42:02;22.30;66.50
61841;DHT22;47773;53.174;6.614;2023-06-04T12:44:28;22.10;66.70
61841;DHT22;47773;53.174;6.614;2023-06-04T12:46:54;22.00;66.60
61841;DHT22;47773;53.174;6.614;2023-06-04T12:49:19;21.90;66.70
61841;DHT22;47773;53.174;6.614;2023-06-04T12:51:46;21.80;67.20
61841;DHT22;47773;53.174;6.614;2023-06-04T12:54:11;21.90;67.30
61841;DHT22;47773;53.174;6.614;2023-06-04T12:56:37;21.70;67.40
61841;DHT22;47773;53.174;6.614;2023-06-04T12:59:02;21.70;67.60
61841;DHT22;47773;53.174;6.614;2023-06-04T13:01:28;21.70;67.60
61841;DHT22;47773;53.174;6.614;2023-06-04T13:03:54;21.50;67.80
61841;DHT22;47773;53.174;6.614;2023-06-04T13:06:21;21.50;68.00
61841;DHT22;47773;53.174;6.614;2023-06-04T13:08:46;21.60;68.40
61841;DHT22;47773;53.174;6.614;2023-06-04T13:11:12;21.50;68.30
61841;DHT22;47773;53.174;6.614;2023-06-04T13:13:38;21.40;68.40
61841;DHT22;47773;53.174;6.614;2023-06-04T13:16:04;21.40;68.50
61841;DHT22;47773;53.174;6.614;2023-06-04T13:18:30;21.40;69.20
61841;DHT22;47773;53.174;6.614;2023-06-04T13:20:55;21.30;69.30
61841;DHT22;47773;53.174;6.614;2023-06-04T13:23:22;21.40;69.70
61841;DHT22;47773;53.174;6.614;2023-06-04T13:25:48;21.40;69.80
61841;DHT22;47773;53.174;6.614;2023-06-04T13:28:14;21.30;69.80
61841;DHT22;47773;53.174;6.614;2023-06-04T13:30:41;21.40;69.70
61841;DHT22;47773;53.174;6.614;2023-06-04T13:33:06;21.40;69.80
61841;DHT22;47773;53.174;6.614;2023-06-04T13:35:32;21.20;69.60
61841;DHT22;47773;53.174;6.614;2023-06-04T13:37:58;21.30;69.80
61841;DHT22;47773;53.174;6.614;2023-06-04T13:40:24;21.20;70.00
61841;DHT22;47773;53.174;6.614;2023-06-04T13:42:49;21.30;70.20
61841;DHT22;47773;53.174;6.614;2023-06-04T13:45:15;21.30;70.00
61841;DHT22;47773;53.174;6.614;2023-06-04T13:47:46;21.30;69.90
61841;DHT22;47773;53.174;6.614;2023-06-04T13:50:13;21.20;70.00
61841;DHT22;47773;53.174;6.614;2023-06-04T13:52:39;21.00;69.90
61841;DHT22;47773;53.174;6.614;2023-06-04T13:55:05;20.90;70.20
61841;DHT22;47773;53.174;6.614;2023-06-04T13:57:31;20.80;70.40
61841;DHT22;47773;53.174;6.614;2023-06-04T13:59:57;20.70;71.10
61841;DHT22;47773;53.174;6.614;2023-06-04T14:02:23;20.70;71.80
61841;DHT22;47773;53.174;6.614;2023-06-04T14:04:50;20.80;71.90
61841;DHT22;47773;53.174;6.614;2023-06-04T14:07:16;20.60;71.80
61841;DHT22;47773;53.174;6.614;2023-06-04T14:09:42;20.50;72.30
61841;DHT22;47773;53.174;6.614;2023-06-04T14:12:08;20.60;73.10
61841;DHT22;47773;53.174;6.614;2023-06-04T14:14:34;20.40;73.00
61841;DHT22;47773;53.174;6.614;2023-06-04T14:17:04;20.30;73.10
61841;DHT22;47773;53.174;6.614;2023-06-04T14:19:29;20.20;73.40
61841;DHT22;47773;53.174;6.614;2023-06-04T14:21:55;20.10;74.10
61841;DHT22;47773;53.174;6.614;2023-06-04T14:24:21;20.10;74.40
61841;DHT22;47773;53.174;6.614;2023-06-04T14:26:47;20.00;74.60
61841;DHT22;47773;53.174;6.614;2023-06-04T14:29:13;20.00;74.90
61841;DHT22;47773;53.174;6.614;2023-06-04T14:31:39;20.00;75.40
61841;DHT22;47773;53.174;6.614;2023-06-04T14:34:05;19.90;75.40
61841;DHT22;47773;53.174;6.614;2023-06-04T14:36:32;19.80;75.80
61841;DHT22;47773;53.174;6.614;2023-06-04T14:38:58;19.70;75.80
61841;DHT22;47773;53.174;6.614;2023-06-04T14:41:24;19.60;76.10
61841;DHT22;47773;53.174;6.614;2023-06-04T14:43:50;19.50;76.20
61841;DHT22;47773;53.174;6.614;2023-06-04T14:46:16;19.50;76.30
61841;DHT22;47773;53.174;6.614;2023-06-04T14:48:42;19.40;76.30
61841;DHT22;47773;53.174;6.614;2023-06-04T14:51:08;19.40;76.50
61841;DHT22;47773;53.174;6.614;2023-06-04T14:53:33;19.30;76.70
61841;DHT22;47773;53.174;6.614;2023-06-04T14:55:59;19.20;76.90
61841;DHT22;47773;53.174;6.614;2023-06-04T14:58:25;19.10;77.30
61841;DHT22;47773;53.174;6.614;2023-06-04T15:00:50;19.10;77.70
61841;DHT22;47773;53.174;6.614;2023-06-04T15:03:16;19.00;78.00
61841;DHT22;47773;53.174;6.614;2023-06-04T15:05:42;19.00;78.20
61841;DHT22;47773;53.174;6.614;2023-06-04T15:08:08;18.90;78.30
61841;DHT22;47773;53.174;6.614;2023-06-04T15:10:34;18.80;78.90
61841;DHT22;47773;53.174;6.614;2023-06-04T15:13:00;18.80;79.20
61841;DHT22;47773;53.174;6.614;2023-06-04T15:15:25;18.80;79.40
61841;DHT22;47773;53.174;6.614;2023-06-04T15:17:51;18.80;80.20
61841;DHT22;47773;53.174;6.614;2023-06-04T15:20:17;18.70;81.20
61841;DHT22;47773;53.174;6.614;2023-06-04T15:22:43;18.70;81.30
61841;DHT22;47773;53.174;6.614;2023-06-04T15:25:08;18.70;82.30
61841;DHT22;47773;53.174;6.614;2023-06-04T15:27:34;18.70;82.50
61841;DHT22;47773;53.174;6.614;2023-06-04T15:30:00;18.60;83.60
61841;DHT22;47773;53.174;6.614;2023-06-04T15:32:26;18.50;84.80
61841;DHT22;47773;53.174;6.614;2023-06-04T15:34:51;18.40;84.90
61841;DHT22;47773;53.174;6.614;2023-06-04T15:37:17;18.30;85.10
61841;DHT22;47773;53.174;6.614;2023-06-04T15:39:43;18.20;86.40
61841;DHT22;47773;53.174;6.614;2023-06-04T15:42:08;18.20;88.30
61841;DHT22;47773;53.174;6.614;2023-06-04T15:44:35;18.10;89.70